createdAt,value
2017-12-06T00:02:12.409Z,101741.43
2017-12-06T00:05:14.477Z,101742.06
2017-12-06T00:08:15.841Z,101738.55
2017-12-06T00:11:17.217Z,101733.53
2017-12-06T00:14:24.593Z,101739.44
2017-12-06T00:17:26.008Z,101727.55
2017-12-06T00:20:27.421Z,101731.39
2017-12-06T00:23:28.781Z,101731.54
2017-12-06T00:26:30.165Z,101728.75
2017-12-06T00:29:31.575Z,101724.19
2017-12-06T00:32:32.940Z,101724.69
2017-12-06T00:35:34.313Z,101730.06
2017-12-06T00:38:36.406Z,101726.88
2017-12-06T00:41:38.509Z,101725.61
2017-12-06T00:44:39.865Z,101721.00
2017-12-06T00:47:41.222Z,101718.47
2017-12-06T00:50:42.576Z,101712.05
2017-12-06T00:53:43.921Z,101708.70
2017-12-06T00:56:45.296Z,101713.63
2017-12-06T00:59:46.655Z,101712.81
2017-12-06T01:02:48.003Z,101706.28
2017-12-06T01:05:49.380Z,101700.25
2017-12-06T01:08:51.437Z,101700.70
2017-12-06T01:11:53.513Z,101710.47
2017-12-06T01:14:55.641Z,101699.52
2017-12-06T01:17:57.062Z,101707.64
2017-12-06T01:20:58.417Z,101717.75
2017-12-06T01:23:59.782Z,101708.41
2017-12-06T01:27:01.140Z,101714.50
2017-12-06T01:30:02.554Z,101712.73
2017-12-06T01:33:10.781Z,101712.05
2017-12-06T01:36:12.172Z,101718.34
2017-12-06T01:39:13.514Z,101706.70
2017-12-06T01:42:14.912Z,101716.90
2017-12-06T01:45:16.983Z,101722.52
2017-12-06T01:48:18.305Z,101712.78
2017-12-06T01:51:19.636Z,101719.65
2017-12-06T01:54:21.037Z,101710.57
2017-12-06T01:57:22.388Z,101708.33
2017-12-06T02:00:23.696Z,101703.77
2017-12-06T02:03:25.004Z,101715.06
2017-12-06T02:06:33.434Z,101711.67
2017-12-06T02:09:34.760Z,101706.50
2017-12-06T02:12:36.098Z,101703.75
2017-12-06T02:15:38.186Z,101698.31
2017-12-06T02:18:39.503Z,101701.90
2017-12-06T02:21:41.600Z,101710.05
2017-12-06T02:24:42.956Z,101696.19
2017-12-06T02:27:44.311Z,101696.61
2017-12-06T02:30:45.694Z,101701.59
2017-12-06T02:33:46.992Z,101704.14
2017-12-06T02:36:48.304Z,101697.81
2017-12-06T02:40:08.263Z,101696.91
2017-12-06T02:43:27.972Z,101686.86
2017-12-06T02:46:29.293Z,101687.20
2017-12-06T02:49:30.655Z,101685.05
2017-12-06T02:52:31.994Z,101682.42
2017-12-06T02:55:33.359Z,101670.88
2017-12-06T02:58:34.699Z,101674.20
2017-12-06T03:01:36.030Z,101679.39
2017-12-06T03:04:37.378Z,101673.92
2017-12-06T03:07:38.680Z,101664.00
2017-12-06T03:10:40.012Z,101666.12
2017-12-06T03:13:41.376Z,101672.89
2017-12-06T03:16:42.676Z,101670.72
2017-12-06T03:19:43.992Z,101679.19
2017-12-06T03:22:45.276Z,101675.78
2017-12-06T03:25:46.613Z,101682.25
2017-12-06T03:28:47.926Z,101683.01
2017-12-06T03:31:49.251Z,101663.41
2017-12-06T03:34:50.567Z,101666.56
2017-12-06T03:37:51.851Z,101657.86
2017-12-06T03:40:53.170Z,101652.20
2017-12-06T03:43:54.465Z,101643.73
2017-12-06T03:46:55.795Z,101643.31
2017-12-06T03:49:57.096Z,101632.27
2017-12-06T03:52:59.132Z,101640.78
2017-12-06T03:56:00.440Z,101639.78
2017-12-06T03:59:01.758Z,101645.24
2017-12-06T04:02:03.831Z,101644.90
2017-12-06T04:05:05.865Z,101643.19
2017-12-06T04:08:07.188Z,101631.30
2017-12-06T04:11:08.513Z,101623.39
2017-12-06T04:14:09.831Z,101637.20
2017-12-06T04:17:11.184Z,101631.77
2017-12-06T04:20:12.472Z,101627.22
2017-12-06T04:23:13.745Z,101632.02
2017-12-06T04:26:15.063Z,101629.61
2017-12-06T04:29:16.388Z,101625.03
2017-12-06T04:32:17.715Z,101612.83
2017-12-06T04:35:19.050Z,101614.41
2017-12-06T04:38:20.385Z,101620.42
2017-12-06T04:41:21.719Z,101622.46
2017-12-06T04:44:23.112Z,101625.06
2017-12-06T04:47:24.451Z,101631.40
2017-12-06T04:50:25.797Z,101623.23
2017-12-06T04:53:27.105Z,101609.45
2017-12-06T04:56:29.150Z,101608.78
2017-12-06T04:59:30.463Z,101604.86
2017-12-06T05:02:31.762Z,101602.27
2017-12-06T05:05:33.837Z,101596.34
2017-12-06T05:08:35.850Z,101601.58
2017-12-06T05:11:37.171Z,101595.24
2017-12-06T05:14:38.496Z,101582.72
2017-12-06T05:17:40.532Z,101586.50
2017-12-06T05:20:41.854Z,101577.36
2017-12-06T05:23:43.128Z,101567.77
2017-12-06T05:26:44.442Z,101569.88
2017-12-06T05:29:45.792Z,101565.41
2017-12-06T05:32:47.110Z,101572.59
2017-12-06T05:35:49.238Z,101556.94
2017-12-06T05:38:51.328Z,101570.84
2017-12-06T05:41:52.615Z,101564.39
2017-12-06T05:44:53.916Z,101558.68
2017-12-06T05:47:55.189Z,101561.44
2017-12-06T05:50:56.481Z,101560.56
2017-12-06T05:53:57.788Z,101560.92
2017-12-06T05:56:59.086Z,101555.31
2017-12-06T06:00:00.406Z,101553.67
2017-12-06T06:03:02.470Z,101553.32
2017-12-06T06:06:04.523Z,101550.83
2017-12-06T06:09:05.831Z,101546.20
2017-12-06T06:12:07.105Z,101544.80
2017-12-06T06:15:08.449Z,101539.31
2017-12-06T06:18:09.721Z,101545.73
2017-12-06T06:21:11.052Z,101537.43
2017-12-06T06:24:12.390Z,101534.23
2017-12-06T06:27:13.685Z,101547.38
2017-12-06T06:30:15.764Z,101538.39
2017-12-06T06:33:17.052Z,101529.63
2017-12-06T06:36:18.372Z,101529.43
2017-12-06T06:39:19.679Z,101531.22
2017-12-06T06:42:20.978Z,101540.93
2017-12-06T06:45:22.336Z,101531.13
2017-12-06T06:48:23.647Z,101530.78
2017-12-06T06:51:25.715Z,101549.01
2017-12-06T06:54:27.820Z,101542.78
2017-12-06T06:57:29.177Z,101546.14
2017-12-06T07:00:30.541Z,101542.02
2017-12-06T07:03:31.847Z,101555.44
2017-12-06T07:06:33.873Z,101543.89
2017-12-06T07:09:35.240Z,101559.75
2017-12-06T07:12:36.536Z,101560.55
2017-12-06T07:15:37.852Z,101559.25
2017-12-06T07:18:39.920Z,101554.00
2017-12-06T07:21:41.930Z,101552.06
2017-12-06T07:24:43.324Z,101553.09
2017-12-06T07:27:44.656Z,101553.13
2017-12-06T07:30:46.033Z,101557.24
2017-12-06T07:33:47.513Z,101554.97
2017-12-06T07:36:48.891Z,101558.83
2017-12-06T07:39:50.211Z,101554.89
2017-12-06T07:42:52.326Z,101557.48
2017-12-06T07:45:54.242Z,101562.03
2017-12-06T07:48:55.544Z,101559.11
2017-12-06T07:51:56.881Z,101561.77
2017-12-06T07:54:58.185Z,101557.19
2017-12-06T07:58:00.295Z,101560.53
2017-12-06T08:01:01.595Z,101554.55
2017-12-06T08:04:03.704Z,101550.41
2017-12-06T08:07:05.001Z,101552.23
2017-12-06T08:10:06.331Z,101546.22
2017-12-06T08:13:07.653Z,101540.52
2017-12-06T08:16:08.960Z,101555.44
2017-12-06T08:19:11.025Z,101568.30
2017-12-06T08:22:13.083Z,101560.36
2017-12-06T08:25:14.380Z,101569.20
2017-12-06T08:28:15.680Z,101554.73
2017-12-06T08:31:17.007Z,101563.88
2017-12-06T08:34:18.312Z,101558.48
2017-12-06T08:37:19.637Z,101564.31
2017-12-06T08:40:20.932Z,101580.95
2017-12-06T08:43:22.284Z,101565.17
2017-12-06T08:46:23.611Z,101571.45
2017-12-06T08:49:24.992Z,101576.06
2017-12-06T08:52:26.339Z,101566.69
2017-12-06T08:55:27.656Z,101568.94
2017-12-06T08:58:29.731Z,101572.69
2017-12-06T09:01:31.788Z,101585.27
2017-12-06T09:04:33.884Z,101585.34
2017-12-06T09:07:35.201Z,101577.98
2017-12-06T09:10:37.310Z,101584.58
2017-12-06T09:13:38.648Z,101577.15
2017-12-06T09:16:40.006Z,101583.83
2017-12-06T09:19:41.300Z,101583.31
2017-12-06T09:22:42.617Z,101589.34
2017-12-06T09:25:43.988Z,101580.55
2017-12-06T09:28:45.320Z,101589.33
2017-12-06T09:31:46.665Z,101586.19
2017-12-06T09:34:48.009Z,101586.30
2017-12-06T09:37:49.341Z,101578.59
2017-12-06T09:40:50.634Z,101575.70
2017-12-06T09:43:51.998Z,101576.17
2017-12-06T09:46:53.306Z,101587.91
2017-12-06T09:49:54.642Z,101560.23
2017-12-06T09:52:55.912Z,101558.48
2017-12-06T09:55:57.231Z,101568.52
2017-12-06T09:58:58.560Z,101567.19
2017-12-06T10:01:59.897Z,101566.88
2017-12-06T10:05:01.215Z,101570.77
2017-12-06T10:08:02.515Z,101567.98
2017-12-06T10:11:03.854Z,101566.69
2017-12-06T10:14:05.116Z,101570.19
2017-12-06T10:17:07.178Z,101553.06
2017-12-06T10:20:08.458Z,101560.11
2017-12-06T10:23:09.822Z,101556.23
2017-12-06T10:26:11.177Z,101559.37
2017-12-06T10:29:12.532Z,101551.38
2017-12-06T10:32:13.877Z,101543.97
2017-12-06T10:35:15.204Z,101553.06
2017-12-06T10:38:16.563Z,101539.89
2017-12-06T10:41:17.884Z,101549.98
2017-12-06T10:44:19.219Z,101551.05
2017-12-06T10:47:20.621Z,101546.97
2017-12-06T10:50:21.956Z,101541.00
2017-12-06T10:53:24.026Z,101538.16
2017-12-06T10:56:25.316Z,101529.61
2017-12-06T10:59:26.632Z,101528.34
2017-12-06T11:02:27.924Z,101523.12
2017-12-06T11:05:29.251Z,101521.78
2017-12-06T11:08:30.530Z,101520.56
2017-12-06T11:11:31.854Z,101521.95
2017-12-06T11:14:33.154Z,101513.64
2017-12-06T11:17:35.237Z,101516.43
2017-12-06T11:20:37.318Z,101508.70
2017-12-06T11:23:38.586Z,101505.19
2017-12-06T11:26:39.930Z,101512.76
2017-12-06T11:29:41.230Z,101499.91
2017-12-06T11:32:42.545Z,101496.33
2017-12-06T11:35:43.878Z,101501.77
2017-12-06T11:38:45.189Z,101499.09
2017-12-06T11:41:47.208Z,101497.45
2017-12-06T11:44:48.527Z,101493.95
2017-12-06T11:47:49.835Z,101497.87
2017-12-06T11:50:51.148Z,101497.01
2017-12-06T11:53:52.514Z,101488.63
2017-12-06T11:56:53.833Z,101503.12
2017-12-06T11:59:55.143Z,101494.70
2017-12-06T12:02:56.412Z,101493.12
2017-12-06T12:05:58.488Z,101486.94
2017-12-06T12:09:00.502Z,101478.39
2017-12-06T12:12:02.904Z,101474.23
2017-12-06T12:15:04.220Z,101472.47
2017-12-06T12:18:05.631Z,101476.34
2017-12-06T12:21:07.091Z,101474.41
2017-12-06T12:24:09.770Z,101454.30
2017-12-06T12:27:11.701Z,101457.23
2017-12-06T12:30:12.995Z,101457.64
2017-12-06T12:33:14.358Z,101442.95
2017-12-06T12:36:16.808Z,101454.66
2017-12-06T12:42:19.719Z,101447.11
2017-12-06T12:45:21.904Z,101439.70
2017-12-06T12:48:23.305Z,101451.05
2017-12-06T12:51:26.599Z,101448.73
2017-12-06T12:54:28.835Z,101445.30
2017-12-06T12:57:37.221Z,101440.13
2017-12-06T13:00:39.306Z,101441.03
2017-12-06T13:03:40.648Z,101439.20
2017-12-06T13:06:42.006Z,101442.33
2017-12-06T13:09:44.883Z,101440.17
2017-12-06T13:12:46.252Z,101431.06
2017-12-06T13:15:48.487Z,101429.57
2017-12-06T13:18:50.575Z,101434.94
2017-12-06T13:21:51.931Z,101424.55
2017-12-06T13:24:53.237Z,101418.69
2017-12-06T13:27:54.616Z,101418.53
2017-12-06T13:30:56.658Z,101414.61
2017-12-06T13:33:58.024Z,101421.51
2017-12-06T13:37:00.108Z,101428.38
2017-12-06T13:40:02.180Z,101397.59
2017-12-06T13:43:03.496Z,101403.64
2017-12-06T13:46:04.860Z,101400.67
2017-12-06T13:49:06.938Z,101407.56
2017-12-06T13:52:09.021Z,101400.38
2017-12-06T13:55:10.362Z,101392.50
2017-12-06T13:58:11.690Z,101392.98
2017-12-06T14:01:13.024Z,101399.09
2017-12-06T14:04:14.303Z,101395.23
2017-12-06T14:07:16.388Z,101395.30
2017-12-06T14:10:17.724Z,101396.28
2017-12-06T14:13:19.795Z,101385.57
2017-12-06T14:16:21.859Z,101396.59
2017-12-06T14:19:23.944Z,101397.98
2017-12-06T14:22:25.323Z,101392.08
2017-12-06T14:25:26.642Z,101392.52
2017-12-06T14:28:27.976Z,101396.11
2017-12-06T14:31:30.043Z,101392.98
2017-12-06T14:34:32.160Z,101390.44
2017-12-06T14:37:33.540Z,101390.48
2017-12-06T14:40:34.913Z,101393.43
2017-12-06T14:43:37.032Z,101386.59
2017-12-06T14:46:38.336Z,101382.14
2017-12-06T14:49:40.460Z,101380.86
2017-12-06T14:52:41.819Z,101384.27
2017-12-06T14:55:43.158Z,101377.34
2017-12-06T14:58:44.504Z,101374.19
2017-12-06T15:01:45.847Z,101379.81
2017-12-06T15:04:47.232Z,101382.72
2017-12-06T15:07:48.564Z,101371.09
2017-12-06T15:10:49.926Z,101376.78
2017-12-06T15:13:51.302Z,101372.98
2017-12-06T15:16:53.360Z,101375.63
2017-12-06T15:19:54.940Z,101376.52
2017-12-06T15:22:56.320Z,101369.48
2017-12-06T15:25:57.640Z,101368.01
2017-12-06T15:28:58.995Z,101368.63
2017-12-06T15:32:00.354Z,101362.38
2017-12-06T15:35:01.746Z,101369.05
2017-12-06T15:38:03.111Z,101356.70
2017-12-06T15:41:04.468Z,101359.66
2017-12-06T15:44:05.850Z,101366.77
2017-12-06T15:47:07.193Z,101348.27
2017-12-06T15:50:09.315Z,101357.98
2017-12-06T15:53:10.687Z,101355.38
2017-12-06T15:56:12.020Z,101343.06
2017-12-06T15:59:13.364Z,101348.78
2017-12-06T16:02:14.744Z,101342.58
2017-12-06T16:05:16.075Z,101350.15
2017-12-06T16:08:17.453Z,101346.17
2017-12-06T16:11:19.514Z,101337.37
2017-12-06T16:14:20.864Z,101337.28
2017-12-06T16:17:22.250Z,101338.61
2017-12-06T16:20:23.582Z,101337.22
2017-12-06T16:23:25.697Z,101339.25
2017-12-06T16:26:27.031Z,101341.63
2017-12-06T16:29:28.412Z,101338.78
2017-12-06T16:32:29.788Z,101329.80
2017-12-06T16:35:49.702Z,101328.48
2017-12-06T16:38:51.087Z,101338.08
2017-12-06T16:41:52.407Z,101331.94
2017-12-06T16:44:53.747Z,101329.59
2017-12-06T16:47:55.895Z,101325.84
2017-12-06T16:50:57.205Z,101324.96
2017-12-06T16:53:58.575Z,101324.98
2017-12-06T16:56:59.908Z,101324.01
2017-12-06T17:00:01.292Z,101326.47
2017-12-06T17:03:02.628Z,101333.62
2017-12-06T17:06:03.925Z,101327.55
2017-12-06T17:09:05.312Z,101328.65
2017-12-06T17:12:06.664Z,101320.77
2017-12-06T17:15:08.035Z,101318.70
2017-12-06T17:18:09.415Z,101312.59
2017-12-06T17:21:11.524Z,101317.25
2017-12-06T17:24:12.857Z,101314.38
2017-12-06T17:27:14.176Z,101307.23
2017-12-06T17:30:34.728Z,101310.61
2017-12-06T17:33:36.090Z,101298.63
2017-12-06T17:36:37.416Z,101297.91
2017-12-06T17:39:38.783Z,101304.17
2017-12-06T17:42:40.088Z,101299.75
2017-12-06T17:45:42.188Z,101293.52
2017-12-06T17:48:43.545Z,101300.27
2017-12-06T17:51:44.878Z,101298.27
2017-12-06T17:54:46.266Z,101284.81
2017-12-06T17:57:47.623Z,101284.38
2017-12-06T18:00:48.948Z,101283.54
2017-12-06T18:03:50.325Z,101281.82
2017-12-06T18:06:54.525Z,101276.09
2017-12-06T18:09:55.831Z,101268.53
2017-12-06T18:12:57.943Z,101276.91
2017-12-06T18:15:59.247Z,101261.94
2017-12-06T18:19:01.366Z,101257.08
2017-12-06T18:22:02.719Z,101247.92
2017-12-06T18:25:04.057Z,101253.64
2017-12-06T18:28:05.423Z,101256.55
2017-12-06T18:31:06.784Z,101248.34
2017-12-06T18:34:08.116Z,101251.33
2017-12-06T18:37:09.508Z,101242.11
2017-12-06T18:40:10.835Z,101255.61
2017-12-06T18:43:12.190Z,101236.83
2017-12-06T18:46:13.587Z,101237.57
2017-12-06T18:49:14.910Z,101240.17
2017-12-06T18:52:16.995Z,101236.81
2017-12-06T18:55:19.051Z,101238.15
2017-12-06T18:58:21.124Z,101230.27
2017-12-06T19:01:23.166Z,101225.88
2017-12-06T19:04:24.573Z,101224.99
2017-12-06T19:07:25.970Z,101225.44
2017-12-06T19:10:27.357Z,101222.34
2017-12-06T19:13:28.719Z,101217.06
2017-12-06T19:16:30.069Z,101221.45
2017-12-06T19:19:32.609Z,101221.46
2017-12-06T19:22:35.722Z,101219.27
2017-12-06T19:25:37.714Z,101219.70
2017-12-06T19:28:40.440Z,101210.92
2017-12-06T19:31:42.585Z,101210.44
2017-12-06T19:34:44.811Z,101209.13
2017-12-06T19:37:48.018Z,101202.99
2017-12-06T19:40:50.888Z,101196.66
2017-12-06T19:43:53.152Z,101184.05
2017-12-06T19:46:56.787Z,101182.72
2017-12-06T19:49:59.009Z,101184.05
2017-12-06T19:53:00.348Z,101184.05
2017-12-06T19:56:02.366Z,101177.02
2017-12-06T19:59:03.712Z,101178.30
2017-12-06T20:02:06.912Z,101169.08
2017-12-06T20:05:09.076Z,101165.98
2017-12-06T20:08:10.446Z,101159.82
2017-12-06T20:11:12.599Z,101157.65
2017-12-06T20:14:16.053Z,101167.28
2017-12-06T20:17:18.272Z,101156.28
2017-12-06T20:20:19.663Z,101160.65
2017-12-06T20:23:20.955Z,101154.98
2017-12-06T20:26:24.092Z,101152.34
2017-12-06T20:29:27.848Z,101148.39
2017-12-06T20:32:29.495Z,101136.45
2017-12-06T20:35:32.311Z,101149.25
2017-12-06T20:38:35.284Z,101134.64
2017-12-06T20:41:39.621Z,101123.64
2017-12-06T20:44:41.676Z,101143.09
2017-12-06T20:47:43.766Z,101137.33
2017-12-06T20:50:45.720Z,101133.44
2017-12-06T20:53:47.378Z,101135.13
2017-12-06T20:56:49.285Z,101132.01
2017-12-06T20:59:50.641Z,101124.16
2017-12-06T21:02:52.619Z,101123.30
2017-12-06T21:05:54.832Z,101132.05
2017-12-06T21:08:58.132Z,101126.80
2017-12-06T21:11:59.473Z,101124.13
2017-12-06T21:15:01.576Z,101122.31
2017-12-06T21:18:04.535Z,101114.03
2017-12-06T21:21:06.704Z,101113.14
2017-12-06T21:24:08.236Z,101111.84
2017-12-06T21:27:09.824Z,101105.69
2017-12-06T21:30:11.141Z,101103.45
2017-12-06T21:33:13.265Z,101103.48
2017-12-06T21:36:14.671Z,101089.86
2017-12-06T21:39:16.684Z,101092.48
2017-12-06T21:42:18.035Z,101095.98
2017-12-06T21:45:19.402Z,101089.42
2017-12-06T21:48:20.704Z,101092.06
2017-12-06T21:51:22.760Z,101091.55
2017-12-06T21:54:24.781Z,101092.02
2017-12-06T21:57:26.133Z,101079.24
2017-12-06T22:00:27.586Z,101074.46
2017-12-06T22:03:28.943Z,101081.45
2017-12-06T22:06:30.255Z,101078.34
2017-12-06T22:09:31.563Z,101056.79
2017-12-06T22:12:32.869Z,101061.64
2017-12-06T22:15:34.144Z,101049.35
2017-12-06T22:18:35.475Z,101051.94
2017-12-06T22:21:36.764Z,101043.14
2017-12-06T22:24:38.100Z,101041.86
2017-12-06T22:27:39.360Z,101037.89
2017-12-06T22:30:40.711Z,101049.35
2017-12-06T22:33:42.044Z,101033.50
2017-12-06T22:36:43.379Z,101030.84
2017-12-06T22:39:44.736Z,101026.38
2017-12-06T22:42:46.041Z,101015.03
2017-12-06T22:45:47.397Z,101011.84
2017-12-06T22:48:48.735Z,101011.08
2017-12-06T22:51:50.819Z,101012.78
2017-12-06T22:54:52.136Z,101014.11
2017-12-06T22:57:53.475Z,101015.92
2017-12-06T23:00:54.975Z,100995.71
2017-12-06T23:03:56.284Z,101004.76
2017-12-06T23:06:57.655Z,101001.69
2017-12-06T23:09:59.759Z,101002.17
2017-12-06T23:13:01.196Z,100987.69
2017-12-06T23:16:02.516Z,100982.08
2017-12-06T23:19:03.871Z,100985.58
2017-12-06T23:22:05.999Z,100980.77
2017-12-06T23:25:07.454Z,100982.09
2017-12-06T23:28:08.819Z,100970.55
2017-12-06T23:31:10.171Z,100974.92
2017-12-06T23:34:11.660Z,100967.10
2017-12-06T23:37:13.736Z,100967.47
2017-12-06T23:40:15.084Z,100951.23
2017-12-06T23:43:18.079Z,100952.19
2017-12-06T23:46:19.411Z,100958.78
2017-12-06T23:49:21.519Z,100948.23
2017-12-06T23:52:22.846Z,100948.11
2017-12-06T23:55:24.174Z,100950.35
2017-12-06T23:58:26.199Z,100935.91
